Altmar, New York
Current Conditions -  °F | °C
As of 12:54 PM on Friday 31 Oct 2014 (Local Time) from KFZY Reporting Station
Few Clouds Few Clouds  
Wind Chill:   Ceiling: Unl
Heat Index:   Visibility: 10mi
Dew Point:   Wind: 3mph
Humidity: 59%   Direction: NA
Pressure: 29.97"   Gusts: NA
Location:  43.51°N, 76°W
Report Text: KFZY 311654Z AUTO VRB03KT 10SM FEW060 09/02 A2997 RMK AO2 SLP150 T00940017
Loading
Personal Weather Stations






























Interactive Weather Map
Tropical Storm Tracking
New forecast layout! Learn more

10-Day Weather Forecast

Advertisements
Track Severe Weather on mobile